ADDS METAR Data INFO
IDs: Format: Raw Decoded Include TAF

Data at: 1141 UTC 17 Jul 2018

KCPC 171110Z AUTO 21005KT 10SM SCT007 24/23 A3000 RMK AO2 T02410225
KCPC 171050Z AUTO 23003KT 10SM CLR 24/23 A3000 RMK AO2 T02410225
KCPC 171030Z AUTO 24003KT 10SM CLR 24/23 A2999 RMK AO2 T02400225
KCPC 171010Z AUTO 24003KT 10SM SCT007 SCT037 SCT055 24/22 A3000 RMK AO2 T02400222
KCPC 170950Z AUTO 22005KT 10SM CLR 24/22 A3000 RMK AO2 T02400220
KCPC 170930Z AUTO 21004KT 10SM SCT013 SCT041 BKN055 24/22 A2999 RMK AO2 T02410219
KCPC 170910Z AUTO 19006KT 10SM SCT013 BKN032 BKN039 24/22 A2999 RMK AO2 T02410221
KCPC 170850Z AUTO 00000KT 10SM SCT015 BKN030 24/23 A2999 RMK AO2 T02410225
KCPC 170830Z AUTO 00000KT 10SM BKN015 OVC028 24/23 A2998 RMK AO2 T02400225
KCPC 170810Z AUTO 00000KT 10SM BKN015 24/22 A2999 RMK AO2 T02350222
KCPC 170750Z AUTO 00000KT 10SM CLR 24/22 A2998 RMK AO2 T02350222
KCPC 170730Z AUTO 00000KT 10SM CLR 24/22 A2998 RMK AO2 T02360221
KCPC 170710Z AUTO 00000KT 10SM SCT018 SCT025 SCT095 24/22 A2999 RMK AO2 T02380222
KCPC 170650Z AUTO 00000KT 10SM SCT095 24/22 A3000 RMK AO2 T02350223
KCPC 170630Z AUTO 00000KT 10SM SCT043 SCT075 SCT095 24/22 A3000 RMK AO2 T02350222
KCPC 170610Z AUTO 00000KT 10SM SCT019 BKN040 OVC075 24/22 A3001 RMK AO2 T02390224
KCPC 170550Z AUTO 00000KT 10SM SCT040 BKN055 BKN070 24/22 A3002 RMK AO2 T02410223 10287 20236 403080202
KCPC 170530Z AUTO 00000KT 10SM SCT070 SCT120 24/22 A3001 RMK AO2 T02360220
KCPC 170510Z AUTO 00000KT 10SM SCT070 BKN120 24/22 A3002 RMK AO2 T02400223
KCPC 170450Z AUTO 00000KT 10SM SCT120 25/22 A3003 RMK AO2 T02500219
KCPC 170430Z AUTO 00000KT 10SM SCT120 25/22 A3002 RMK AO2 T02500219
KCPC 170410Z AUTO 19004KT 10SM SCT120 25/22 A3003 RMK AO2 T02520220
KCPC 170350Z AUTO 19003KT 10SM CLR 26/22 A3003 RMK AO2 T02550220
KCPC 170330Z AUTO 19004KT 10SM CLR 25/22 A3002 RMK AO2 T02520220
KCPC 170310Z AUTO 19003KT 10SM CLR 25/22 A3002 RMK AO2 T02530220
KCPC 170250Z AUTO 18003KT 10SM CLR 26/22 A3002 RMK AO2 T02570221
KCPC 170230Z AUTO 19004KT 10SM CLR 26/22 A3003 RMK AO2 T02600221
KCPC 170210Z AUTO 19003KT 10SM CLR 26/22 A3003 RMK AO2 T02620222
KCPC 170150Z AUTO 19004KT 10SM CLR 26/22 A3002 RMK AO2 T02630222
KCPC 170130Z AUTO 19003KT 10SM CLR 27/22 A3002 RMK AO2 T02650222
KCPC 170110Z AUTO 18004KT 10SM CLR 27/22 A3001 RMK AO2 T02680223
KCPC 170050Z AUTO 17003KT 10SM CLR 27/22 A3001 RMK AO2 T02720222
KCPC 170030Z AUTO 18004KT 10SM CLR 28/22 A3000 RMK AO2 T02760220
KCPC 170010Z AUTO 18004KT 10SM CLR 28/22 A3000 RMK AO2 T02820222
KCPC 162350Z AUTO 19004KT 10SM CLR 29/22 A3000 RMK AO2 T02880221 10308 20288
KCPC 162330Z AUTO 00000KT 10SM CLR 29/22 A2999 RMK AO2 T02920220
KCPC 162310Z AUTO 00000KT 10SM CLR 30/22 A2999 RMK AO2 T02950218
KCPC 162250Z AUTO 14003KT 10SM CLR 30/22 A2999 RMK AO2 T02960216
KCPC 162230Z AUTO 18004KT 10SM CLR 30/21 A3000 RMK AO2 T03010210
KCPC 162210Z AUTO 16004KT 10SM CLR 30/21 A2999 RMK AO2 T03000209
KCPC 162150Z AUTO 17004KT 10SM CLR 31/21 A3000 RMK AO2 T03060205
KCPC 162130Z AUTO 15004KT 10SM CLR 30/22 A3000 RMK AO2 T02990215
KCPC 162110Z AUTO 18004KT 10SM CLR 30/21 A3000 RMK AO2 T03000210
KCPC 162050Z AUTO 19006KT 10SM CLR 31/21 A3000 RMK AO2 T03050210
KCPC 162030Z AUTO 20006KT 10SM CLR 31/21 A3000 RMK AO2 T03060210
KCPC 162010Z AUTO 19005KT 10SM CLR 31/21 A3001 RMK AO2 T03060209
KCPC 161950Z AUTO 15003KT 10SM CLR 31/21 A3001 RMK AO2 T03050208
KCPC 161930Z AUTO 00000KT 10SM CLR 31/21 A3001 RMK AO2 T03060207
KCPC 161910Z AUTO 00000KT 10SM CLR 31/21 A3002 RMK AO2 T03070206
KCPC 161850Z AUTO 14003KT 10SM CLR 30/20 A3003 RMK AO2 T03010202
KCPC 161830Z AUTO 20003KT 10SM CLR 30/20 A3004 RMK AO2 T03020203
KCPC 161810Z AUTO 18005KT 10SM CLR 30/19 A3005 RMK AO2 T02970192
KCPC 161750Z AUTO 19003KT 10SM CLR 30/19 A3006 RMK AO2 T02960186 10296 20224
KCPC 161730Z AUTO 21004KT 10SM CLR 30/19 A3006 RMK AO2 T02950192
KCPC 161710Z AUTO 20003KT 10SM CLR 30/20 A3007 RMK AO2 T02960199
KCPC 161650Z AUTO 19003KT 10SM CLR 29/20 A3007 RMK AO2 T02920200
KCPC 161630Z AUTO 00000KT 10SM CLR 29/20 A3007 RMK AO2 T02900200
KCPC 161610Z AUTO 25003KT 10SM CLR 29/20 A3007 RMK AO2 T02860199
KCPC 161550Z AUTO 00000KT 10SM CLR 28/20 A3007 RMK AO2 T02840197
KCPC 161530Z AUTO 26003KT 10SM CLR 28/20 A3007 RMK AO2 T02810198
KCPC 161510Z AUTO 21003KT 10SM CLR 28/20 A3007 RMK AO2 T02800196
KCPC 161450Z AUTO 00000KT 10SM SCT090 SCT120 28/20 A3007 RMK AO2 T02750201
KCPC 161430Z AUTO 00000KT 10SM BKN090 BKN120 27/21 A3007 RMK AO2 T02670207
KCPC 161410Z AUTO 00000KT 10SM SCT075 BKN090 27/21 A3007 RMK AO2 T02660209
KCPC 161350Z AUTO 00000KT 10SM SCT075 26/21 A3007 RMK AO2 T02610212
KCPC 161330Z AUTO 00000KT 10SM CLR 26/21 A3007 RMK AO2 T02550210
KCPC 161310Z AUTO 00000KT 10SM CLR 25/22 A3007 RMK AO2 T02450215
KCPC 161250Z AUTO 00000KT 10SM CLR 24/21 A3007 RMK AO2 T02370211
KCPC 161230Z AUTO 00000KT 10SM CLR 23/21 A3006 RMK AO2 T02330213
KCPC 161210Z AUTO 00000KT 10SM CLR 23/21 A3006 RMK AO2 T02280211
KCPC 161150Z AUTO 00000KT 10SM CLR 22/21 A3006 RMK AO2 T02200209 10220 20202
KCPC 161130Z AUTO 00000KT 10SM CLR 22/21 A3006 RMK AO2 T02170209
KCPC 161110Z AUTO 00000KT 10SM CLR 21/21 A3006 RMK AO2 T02130206
KCPC 161050Z AUTO 00000KT 10SM CLR 21/20 A3005 RMK AO2 T02090201
KCPC 161030Z AUTO 00000KT 10SM CLR 21/20 A3005 RMK AO2 T02070201
KCPC 161010Z AUTO 00000KT 10SM CLR 21/20 A3005 RMK AO2 T02050198
KCPC 160950Z AUTO 00000KT 10SM CLR 20/20 A3005 RMK AO2 T02030197
KCPC 160930Z AUTO 00000KT 10SM CLR 21/20 A3004 RMK AO2 T02070200
KCPC 160910Z AUTO 00000KT 10SM CLR 21/20 A3004 RMK AO2 T02050198
KCPC 160850Z AUTO 00000KT 10SM CLR 21/20 A3004 RMK AO2 T02050199
KCPC 160830Z AUTO 00000KT 10SM CLR 21/20 A3004 RMK AO2 T02050198
KCPC 160810Z AUTO 00000KT 10SM CLR 21/20 A3004 RMK AO2 T02050200
KCPC 160750Z AUTO 00000KT 10SM CLR 21/20 A3005 RMK AO2 T02060200
KCPC 160730Z AUTO 00000KT 10SM CLR 21/20 A3005 RMK AO2 T02080201
KCPC 160710Z AUTO 00000KT 10SM CLR 21/20 A3004 RMK AO2 T02090203
KCPC 160650Z AUTO 00000KT 10SM CLR 21/20 A3005 RMK AO2 T02100203
KCPC 160630Z AUTO 00000KT 10SM CLR 21/21 A3006 RMK AO2 T02140206
KCPC 160610Z AUTO 00000KT 10SM CLR 22/21 A3006 RMK AO2 T02150210
KCPC 160550Z AUTO 00000KT 10SM CLR 22/21 A3006 RMK AO2 T02170210 10277 20217 403220187
KCPC 160530Z AUTO 00000KT 10SM CLR 22/21 A3006 RMK AO2 T02170208
KCPC 160510Z AUTO 00000KT 10SM CLR 22/21 A3006 RMK AO2 T02190210
KCPC 160450Z AUTO 00000KT 10SM CLR 22/21 A3006 RMK AO2 T02200211
KCPC 160430Z AUTO 00000KT 10SM CLR 23/21 A3006 RMK AO2 T02260211
KCPC 160410Z AUTO 00000KT 10SM CLR 23/21 A3006 RMK AO2 T02250211
KCPC 160350Z AUTO 00000KT 10SM CLR 23/21 A3006 RMK AO2 T02310211
KCPC 160330Z AUTO 00000KT 10SM CLR 24/21 A3006 RMK AO2 T02350211
KCPC 160310Z AUTO 00000KT 10SM CLR 24/21 A3006 RMK AO2 T02410210
KCPC 160250Z AUTO 00000KT 10SM CLR 24/21 A3006 RMK AO2 T02430210
KCPC 160230Z AUTO 18003KT 10SM CLR 25/21 A3006 RMK AO2 T02470208
KCPC 160210Z AUTO 18004KT 10SM CLR 25/21 A3005 RMK AO2 T02500205
KCPC 160150Z AUTO 18003KT 10SM CLR 25/20 A3005 RMK AO2 T02510201
KCPC 160130Z AUTO 18003KT 10SM CLR 26/20 A3005 RMK AO2 T02550200
KCPC 160110Z AUTO 00000KT 10SM CLR 26/20 A3004 RMK AO2 T02580200
KCPC 160050Z AUTO 00000KT 10SM CLR 26/20 A3004 RMK AO2 T02620200
KCPC 160030Z AUTO 00000KT 10SM CLR 27/20 A3003 RMK AO2 T02660203
KCPC 160010Z AUTO 00000KT 10SM CLR 27/20 A3003 RMK AO2 T02720200
KCPC 152350Z AUTO 15003KT 10SM CLR 28/20 A3003 RMK AO2 T02790196 10322 20279